sensor_id;sensor_type;location;lat;lon;timestamp;temperature;humidity
46438;DHT22;32137;48.728;9.142;2023-07-16T00:01:44;22.80;99.90
46438;DHT22;32137;48.728;9.142;2023-07-16T00:04:09;22.70;99.90
46438;DHT22;32137;48.728;9.142;2023-07-16T00:06:35;21.70;99.90
46438;DHT22;32137;48.728;9.142;2023-07-16T00:09:00;21.70;99.90
46438;DHT22;32137;48.728;9.142;2023-07-16T00:11:26;21.80;99.90
46438;DHT22;32137;48.728;9.142;2023-07-16T00:13:52;22.10;99.90
46438;DHT22;32137;48.728;9.142;2023-07-16T00:16:17;21.80;99.90
46438;DHT22;32137;48.728;9.142;2023-07-16T00:18:44;22.50;99.90
46438;DHT22;32137;48.728;9.142;2023-07-16T00:21:10;22.40;99.90
46438;DHT22;32137;48.728;9.142;2023-07-16T00:23:36;22.50;99.90
46438;DHT22;32137;48.728;9.142;2023-07-16T00:26:02;21.80;99.90
46438;DHT22;32137;48.728;9.142;2023-07-16T00:28:27;21.60;99.90
46438;DHT22;32137;48.728;9.142;2023-07-16T00:30:53;22.20;99.90
46438;DHT22;32137;48.728;9.142;2023-07-16T00:33:18;22.20;99.90
46438;DHT22;32137;48.728;9.142;2023-07-16T00:35:47;21.80;99.90
46438;DHT22;32137;48.728;9.142;2023-07-16T00:38:14;21.90;99.90
46438;DHT22;32137;48.728;9.142;2023-07-16T00:40:39;22.10;99.90
46438;DHT22;32137;48.728;9.142;2023-07-16T00:43:05;22.30;99.90
46438;DHT22;32137;48.728;9.142;2023-07-16T00:45:30;21.50;99.90
46438;DHT22;32137;48.728;9.142;2023-07-16T00:47:56;21.70;99.90
46438;DHT22;32137;48.728;9.142;2023-07-16T00:50:22;22.00;99.90
46438;DHT22;32137;48.728;9.142;2023-07-16T00:52:48;22.10;99.90
46438;DHT22;32137;48.728;9.142;2023-07-16T00:55:13;21.40;99.90
46438;DHT22;32137;48.728;9.142;2023-07-16T00:57:39;22.10;99.90
46438;DHT22;32137;48.728;9.142;2023-07-16T01:00:05;22.10;99.90
46438;DHT22;32137;48.728;9.142;2023-07-16T01:02:31;22.20;99.90
46438;DHT22;32137;48.728;9.142;2023-07-16T01:04:57;21.80;99.90
46438;DHT22;32137;48.728;9.142;2023-07-16T01:07:25;21.40;99.90
46438;DHT22;32137;48.728;9.142;2023-07-16T01:09:53;21.40;99.90
46438;DHT22;32137;48.728;9.142;2023-07-16T01:12:21;21.70;99.90
46438;DHT22;32137;48.728;9.142;2023-07-16T01:14:47;21.30;99.90
46438;DHT22;32137;48.728;9.142;2023-07-16T01:17:13;21.90;99.90
46438;DHT22;32137;48.728;9.142;2023-07-16T01:19:38;21.80;99.90
46438;DHT22;32137;48.728;9.142;2023-07-16T01:22:22;21.40;99.90
46438;DHT22;32137;48.728;9.142;2023-07-16T01:30:43;21.30;99.90
46438;DHT22;32137;48.728;9.142;2023-07-16T01:33:11;20.50;99.90
46438;DHT22;32137;48.728;9.142;2023-07-16T01:35:38;20.80;99.90
46438;DHT22;32137;48.728;9.142;2023-07-16T01:38:05;20.60;99.90
46438;DHT22;32137;48.728;9.142;2023-07-16T01:40:31;20.90;99.90
46438;DHT22;32137;48.728;9.142;2023-07-16T01:42:57;20.70;99.90
46438;DHT22;32137;48.728;9.142;2023-07-16T01:45:22;20.80;99.90
46438;DHT22;32137;48.728;9.142;2023-07-16T01:47:50;20.30;99.90
46438;DHT22;32137;48.728;9.142;2023-07-16T01:50:19;19.80;99.90
46438;DHT22;32137;48.728;9.142;2023-07-16T01:52:45;20.30;99.90
46438;DHT22;32137;48.728;9.142;2023-07-16T01:55:11;20.70;99.90
46438;DHT22;32137;48.728;9.142;2023-07-16T01:57:36;20.00;99.90
46438;DHT22;32137;48.728;9.142;2023-07-16T02:00:02;20.30;99.90
46438;DHT22;32137;48.728;9.142;2023-07-16T02:02:28;19.70;99.90
46438;DHT22;32137;48.728;9.142;2023-07-16T02:04:53;20.50;99.90
46438;DHT22;32137;48.728;9.142;2023-07-16T02:07:19;20.40;99.90
46438;DHT22;32137;48.728;9.142;2023-07-16T02:09:44;20.20;99.90
46438;DHT22;32137;48.728;9.142;2023-07-16T02:12:10;20.00;99.90
46438;DHT22;32137;48.728;9.142;2023-07-16T02:14:36;20.20;99.90
46438;DHT22;32137;48.728;9.142;2023-07-16T02:17:01;19.70;99.90
46438;DHT22;32137;48.728;9.142;2023-07-16T02:19:27;20.10;99.90
46438;DHT22;32137;48.728;9.142;2023-07-16T02:21:52;19.40;99.90
46438;DHT22;32137;48.728;9.142;2023-07-16T02:24:18;19.90;99.90
46438;DHT22;32137;48.728;9.142;2023-07-16T02:26:43;19.30;99.90
46438;DHT22;32137;48.728;9.142;2023-07-16T02:29:09;19.50;99.90
46438;DHT22;32137;48.728;9.142;2023-07-16T02:31:35;19.70;99.90
46438;DHT22;32137;48.728;9.142;2023-07-16T02:34:01;19.10;99.90
46438;DHT22;32137;48.728;9.142;2023-07-16T02:36:27;19.60;99.90
46438;DHT22;32137;48.728;9.142;2023-07-16T02:38:52;19.50;99.90
46438;DHT22;32137;48.728;9.142;2023-07-16T02:41:18;19.40;99.90
46438;DHT22;32137;48.728;9.142;2023-07-16T02:43:45;18.70;99.90
46438;DHT22;32137;48.728;9.142;2023-07-16T02:46:10;19.40;99.90
46438;DHT22;32137;48.728;9.142;2023-07-16T02:48:36;18.70;99.90
46438;DHT22;32137;48.728;9.142;2023-07-16T02:51:02;19.10;99.90
46438;DHT22;32137;48.728;9.142;2023-07-16T02:53:27;19.00;99.90
46438;DHT22;32137;48.728;9.142;2023-07-16T02:55:53;18.80;99.90
46438;DHT22;32137;48.728;9.142;2023-07-16T02:58:18;18.70;99.90
46438;DHT22;32137;48.728;9.142;2023-07-16T03:00:44;18.30;99.90
46438;DHT22;32137;48.728;9.142;2023-07-16T03:03:09;18.20;99.90
46438;DHT22;32137;48.728;9.142;2023-07-16T03:05:35;18.00;99.90
46438;DHT22;32137;48.728;9.142;2023-07-16T03:08:00;18.70;99.90
46438;DHT22;32137;48.728;9.142;2023-07-16T03:10:26;18.60;99.90
46438;DHT22;32137;48.728;9.142;2023-07-16T03:12:52;18.90;99.90
46438;DHT22;32137;48.728;9.142;2023-07-16T03:15:18;18.60;99.90
46438;DHT22;32137;48.728;9.142;2023-07-16T03:17:43;18.90;99.90
46438;DHT22;32137;48.728;9.142;2023-07-16T03:20:09;18.40;99.90
46438;DHT22;32137;48.728;9.142;2023-07-16T03:22:35;18.70;99.90
46438;DHT22;32137;48.728;9.142;2023-07-16T03:25:01;18.30;99.90
46438;DHT22;32137;48.728;9.142;2023-07-16T03:27:28;18.40;99.90
46438;DHT22;32137;48.728;9.142;2023-07-16T03:29:54;18.50;99.90
46438;DHT22;32137;48.728;9.142;2023-07-16T03:32:19;18.50;99.90
46438;DHT22;32137;48.728;9.142;2023-07-16T03:34:45;18.70;99.90
46438;DHT22;32137;48.728;9.142;2023-07-16T03:37:10;18.90;99.90
46438;DHT22;32137;48.728;9.142;2023-07-16T03:39:36;18.50;99.90
46438;DHT22;32137;48.728;9.142;2023-07-16T03:42:02;19.00;99.90
46438;DHT22;32137;48.728;9.142;2023-07-16T03:44:29;18.60;99.90
46438;DHT22;32137;48.728;9.142;2023-07-16T03:46:54;18.40;99.90
46438;DHT22;32137;48.728;9.142;2023-07-16T03:49:20;18.60;99.90
46438;DHT22;32137;48.728;9.142;2023-07-16T03:51:45;18.50;99.90
46438;DHT22;32137;48.728;9.142;2023-07-16T03:54:11;18.50;99.90
46438;DHT22;32137;48.728;9.142;2023-07-16T03:56:36;18.90;99.90
46438;DHT22;32137;48.728;9.142;2023-07-16T03:59:02;18.50;99.90
46438;DHT22;32137;48.728;9.142;2023-07-16T04:01:27;18.50;99.90
46438;DHT22;32137;48.728;9.142;2023-07-16T04:03:53;19.00;99.90
46438;DHT22;32137;48.728;9.142;2023-07-16T04:06:18;18.50;99.90
46438;DHT22;32137;48.728;9.142;2023-07-16T04:08:44;18.60;99.90
46438;DHT22;32137;48.728;9.142;2023-07-16T04:11:09;18.70;99.90
46438;DHT22;32137;48.728;9.142;2023-07-16T04:13:35;18.70;99.90
46438;DHT22;32137;48.728;9.142;2023-07-16T04:16:01;18.40;99.90
46438;DHT22;32137;48.728;9.142;2023-07-16T04:18:26;18.80;99.90
46438;DHT22;32137;48.728;9.142;2023-07-16T04:20:52;18.70;99.90
46438;DHT22;32137;48.728;9.142;2023-07-16T04:23:18;18.30;99.90
46438;DHT22;32137;48.728;9.142;2023-07-16T04:25:43;18.90;99.90
46438;DHT22;32137;48.728;9.142;2023-07-16T04:28:10;18.80;99.90
46438;DHT22;32137;48.728;9.142;2023-07-16T04:30:36;18.50;99.90
46438;DHT22;32137;48.728;9.142;2023-07-16T04:33:03;18.50;99.90
46438;DHT22;32137;48.728;9.142;2023-07-16T04:35:28;19.00;99.90
46438;DHT22;32137;48.728;9.142;2023-07-16T04:37:54;19.00;99.90
46438;DHT22;32137;48.728;9.142;2023-07-16T04:40:19;18.90;99.90
46438;DHT22;32137;48.728;9.142;2023-07-16T04:42:45;18.90;99.90
46438;DHT22;32137;48.728;9.142;2023-07-16T04:45:11;18.80;99.90
46438;DHT22;32137;48.728;9.142;2023-07-16T04:47:36;18.50;99.90
46438;DHT22;32137;48.728;9.142;2023-07-16T04:50:02;18.40;99.90
46438;DHT22;32137;48.728;9.142;2023-07-16T04:52:28;18.50;99.90
46438;DHT22;32137;48.728;9.142;2023-07-16T04:54:53;18.80;99.90
46438;DHT22;32137;48.728;9.142;2023-07-16T04:57:19;18.80;99.90
46438;DHT22;32137;48.728;9.142;2023-07-16T04:59:44;18.30;99.90
46438;DHT22;32137;48.728;9.142;2023-07-16T05:02:10;18.80;99.90
46438;DHT22;32137;48.728;9.142;2023-07-16T05:04:36;18.70;99.90
46438;DHT22;32137;48.728;9.142;2023-07-16T05:07:02;18.80;99.90
46438;DHT22;32137;48.728;9.142;2023-07-16T05:09:28;18.30;99.90
46438;DHT22;32137;48.728;9.142;2023-07-16T05:11:54;18.40;99.90
46438;DHT22;32137;48.728;9.142;2023-07-16T05:14:19;18.80;99.90
46438;DHT22;32137;48.728;9.142;2023-07-16T05:16:45;18.80;99.90
46438;DHT22;32137;48.728;9.142;2023-07-16T05:19:11;18.90;99.90
46438;DHT22;32137;48.728;9.142;2023-07-16T05:21:36;18.50;99.90
46438;DHT22;32137;48.728;9.142;2023-07-16T05:24:02;18.40;99.90
46438;DHT22;32137;48.728;9.142;2023-07-16T05:26:28;18.70;99.90
46438;DHT22;32137;48.728;9.142;2023-07-16T05:28:53;18.40;99.90
46438;DHT22;32137;48.728;9.142;2023-07-16T05:31:19;18.40;99.90
46438;DHT22;32137;48.728;9.142;2023-07-16T05:33:45;18.40;99.90
46438;DHT22;32137;48.728;9.142;2023-07-16T05:36:10;18.50;99.90
46438;DHT22;32137;48.728;9.142;2023-07-16T05:38:36;18.50;99.90
46438;DHT22;32137;48.728;9.142;2023-07-16T05:41:02;18.50;99.90
46438;DHT22;32137;48.728;9.142;2023-07-16T05:43:28;18.40;99.90
46438;DHT22;32137;48.728;9.142;2023-07-16T05:45:54;18.80;99.90
46438;DHT22;32137;48.728;9.142;2023-07-16T05:48:19;18.80;99.90
46438;DHT22;32137;48.728;9.142;2023-07-16T05:50:45;18.50;99.90
46438;DHT22;32137;48.728;9.142;2023-07-16T05:53:11;18.60;99.90
46438;DHT22;32137;48.728;9.142;2023-07-16T05:55:36;19.00;99.90
46438;DHT22;32137;48.728;9.142;2023-07-16T05:58:04;18.80;99.90
46438;DHT22;32137;48.728;9.142;2023-07-16T06:00:29;19.20;99.90
46438;DHT22;32137;48.728;9.142;2023-07-16T06:02:55;19.00;99.90
46438;DHT22;32137;48.728;9.142;2023-07-16T06:05:21;19.00;99.90
46438;DHT22;32137;48.728;9.142;2023-07-16T06:07:46;19.00;99.90
46438;DHT22;32137;48.728;9.142;2023-07-16T06:10:12;18.80;99.90
46438;DHT22;32137;48.728;9.142;2023-07-16T06:12:38;18.40;99.90
46438;DHT22;32137;48.728;9.142;2023-07-16T06:15:03;19.00;99.90
46438;DHT22;32137;48.728;9.142;2023-07-16T06:17:29;18.30;99.90
46438;DHT22;32137;48.728;9.142;2023-07-16T06:19:54;19.00;99.90
46438;DHT22;32137;48.728;9.142;2023-07-16T06:22:21;18.30;99.90
46438;DHT22;32137;48.728;9.142;2023-07-16T06:24:47;18.20;99.90
46438;DHT22;32137;48.728;9.142;2023-07-16T06:27:12;18.10;99.90
46438;DHT22;32137;48.728;9.142;2023-07-16T06:29:38;18.40;99.90
46438;DHT22;32137;48.728;9.142;2023-07-16T06:32:03;18.30;99.90
46438;DHT22;32137;48.728;9.142;2023-07-16T06:34:29;18.30;99.90
46438;DHT22;32137;48.728;9.142;2023-07-16T06:36:55;19.00;99.90
46438;DHT22;32137;48.728;9.142;2023-07-16T06:39:20;18.50;99.90
46438;DHT22;32137;48.728;9.142;2023-07-16T06:41:46;19.10;99.90
46438;DHT22;32137;48.728;9.142;2023-07-16T06:44:11;18.30;99.90
46438;DHT22;32137;48.728;9.142;2023-07-16T06:46:37;18.90;99.90
46438;DHT22;32137;48.728;9.142;2023-07-16T06:49:02;19.20;99.90
46438;DHT22;32137;48.728;9.142;2023-07-16T06:51:28;19.30;99.90
46438;DHT22;32137;48.728;9.142;2023-07-16T06:53:55;19.00;99.90
46438;DHT22;32137;48.728;9.142;2023-07-16T06:56:21;18.50;99.90
46438;DHT22;32137;48.728;9.142;2023-07-16T06:58:46;19.00;99.90
46438;DHT22;32137;48.728;9.142;2023-07-16T07:01:12;18.90;99.90
46438;DHT22;32137;48.728;9.142;2023-07-16T07:03:37;18.60;99.90
46438;DHT22;32137;48.728;9.142;2023-07-16T07:06:03;18.50;99.90
46438;DHT22;32137;48.728;9.142;2023-07-16T07:08:29;18.80;99.90
46438;DHT22;32137;48.728;9.142;2023-07-16T07:10:55;17.80;99.90
46438;DHT22;32137;48.728;9.142;2023-07-16T07:13:20;18.50;99.90
46438;DHT22;32137;48.728;9.142;2023-07-16T07:15:46;18.00;99.90
46438;DHT22;32137;48.728;9.142;2023-07-16T07:18:12;18.30;99.90
46438;DHT22;32137;48.728;9.142;2023-07-16T07:20:39;18.10;99.90
46438;DHT22;32137;48.728;9.142;2023-07-16T07:23:05;18.00;99.90
46438;DHT22;32137;48.728;9.142;2023-07-16T07:25:30;18.60;99.90
46438;DHT22;32137;48.728;9.142;2023-07-16T07:27:56;18.40;99.90
46438;DHT22;32137;48.728;9.142;2023-07-16T07:30:22;18.50;99.90
46438;DHT22;32137;48.728;9.142;2023-07-16T07:32:47;17.80;99.90
46438;DHT22;32137;48.728;9.142;2023-07-16T07:35:13;17.70;99.90
46438;DHT22;32137;48.728;9.142;2023-07-16T07:37:38;18.30;99.90
46438;DHT22;32137;48.728;9.142;2023-07-16T07:40:04;18.30;99.90
46438;DHT22;32137;48.728;9.142;2023-07-16T07:42:30;17.70;99.90
46438;DHT22;32137;48.728;9.142;2023-07-16T07:44:55;17.70;99.90
46438;DHT22;32137;48.728;9.142;2023-07-16T07:47:21;17.50;99.90
46438;DHT22;32137;48.728;9.142;2023-07-16T07:49:47;17.60;99.90
46438;DHT22;32137;48.728;9.142;2023-07-16T07:52:12;17.60;99.90
46438;DHT22;32137;48.728;9.142;2023-07-16T07:54:38;17.60;99.90
46438;DHT22;32137;48.728;9.142;2023-07-16T07:57:04;17.70;99.90
46438;DHT22;32137;48.728;9.142;2023-07-16T07:59:30;17.70;99.90
46438;DHT22;32137;48.728;9.142;2023-07-16T08:01:57;18.00;99.90
46438;DHT22;32137;48.728;9.142;2023-07-16T08:04:23;17.90;99.90
46438;DHT22;32137;48.728;9.142;2023-07-16T08:06:49;17.90;99.90
46438;DHT22;32137;48.728;9.142;2023-07-16T08:09:15;18.10;99.90
46438;DHT22;32137;48.728;9.142;2023-07-16T08:11:40;18.10;99.90
46438;DHT22;32137;48.728;9.142;2023-07-16T08:14:06;18.20;99.90
46438;DHT22;32137;48.728;9.142;2023-07-16T08:16:32;18.10;99.90
46438;DHT22;32137;48.728;9.142;2023-07-16T08:18:57;18.10;99.90
46438;DHT22;32137;48.728;9.142;2023-07-16T08:21:23;18.10;99.90
46438;DHT22;32137;48.728;9.142;2023-07-16T08:23:49;18.00;99.90
46438;DHT22;32137;48.728;9.142;2023-07-16T08:26:14;18.10;99.90
46438;DHT22;32137;48.728;9.142;2023-07-16T08:28:40;18.20;99.90
46438;DHT22;32137;48.728;9.142;2023-07-16T08:31:06;18.40;99.90
46438;DHT22;32137;48.728;9.142;2023-07-16T08:33:31;18.50;1.00
46438;DHT22;32137;48.728;9.142;2023-07-16T08:35:57;18.50;1.00
46438;DHT22;32137;48.728;9.142;2023-07-16T08:38:22;18.50;99.90
46438;DHT22;32137;48.728;9.142;2023-07-16T08:40:48;18.40;99.90
46438;DHT22;32137;48.728;9.142;2023-07-16T08:43:16;18.40;36.80
46438;DHT22;32137;48.728;9.142;2023-07-16T08:45:44;18.40;1.00
46438;DHT22;32137;48.728;9.142;2023-07-16T08:48:11;18.40;99.90
46438;DHT22;32137;48.728;9.142;2023-07-16T08:50:37;18.40;99.90
46438;DHT22;32137;48.728;9.142;2023-07-16T08:53:07;18.50;99.90
46438;DHT22;32137;48.728;9.142;2023-07-16T08:55:34;18.40;99.90
46438;DHT22;32137;48.728;9.142;2023-07-16T08:58:03;18.30;99.90
46438;DHT22;32137;48.728;9.142;2023-07-16T09:00:30;18.30;99.90
46438;DHT22;32137;48.728;9.142;2023-07-16T09:02:56;18.30;99.90
46438;DHT22;32137;48.728;9.142;2023-07-16T09:05:22;18.30;1.00
46438;DHT22;32137;48.728;9.142;2023-07-16T09:07:48;18.10;1.00
46438;DHT22;32137;48.728;9.142;2023-07-16T09:10:13;18.10;1.00
46438;DHT22;32137;48.728;9.142;2023-07-16T09:12:46;18.20;1.00
46438;DHT22;32137;48.728;9.142;2023-07-16T09:15:17;18.20;1.00
46438;DHT22;32137;48.728;9.142;2023-07-16T09:17:47;18.20;1.00
46438;DHT22;32137;48.728;9.142;2023-07-16T09:20:15;18.30;99.90
46438;DHT22;32137;48.728;9.142;2023-07-16T09:22:42;18.30;1.00
46438;DHT22;32137;48.728;9.142;2023-07-16T09:25:08;18.40;1.00
46438;DHT22;32137;48.728;9.142;2023-07-16T09:27:34;18.40;99.90
46438;DHT22;32137;48.728;9.142;2023-07-16T09:30:00;18.60;99.90
46438;DHT22;32137;48.728;9.142;2023-07-16T09:32:35;18.80;99.90
46438;DHT22;32137;48.728;9.142;2023-07-16T09:35:01;19.00;99.90
46438;DHT22;32137;48.728;9.142;2023-07-16T09:37:27;19.10;99.90
46438;DHT22;32137;48.728;9.142;2023-07-16T09:39:54;19.20;99.90
46438;DHT22;32137;48.728;9.142;2023-07-16T09:42:19;19.20;99.90
46438;DHT22;32137;48.728;9.142;2023-07-16T09:44:46;19.20;99.90
46438;DHT22;32137;48.728;9.142;2023-07-16T09:47:12;19.20;99.90
46438;DHT22;32137;48.728;9.142;2023-07-16T09:49:38;19.20;99.90
46438;DHT22;32137;48.728;9.142;2023-07-16T09:52:04;19.30;99.90
46438;DHT22;32137;48.728;9.142;2023-07-16T09:54:32;19.50;99.90
46438;DHT22;32137;48.728;9.142;2023-07-16T09:56:59;19.70;99.90
46438;DHT22;32137;48.728;9.142;2023-07-16T09:59:31;19.80;99.90
46438;DHT22;32137;48.728;9.142;2023-07-16T10:01:57;19.80;99.90
46438;DHT22;32137;48.728;9.142;2023-07-16T10:04:24;19.90;99.90
46438;DHT22;32137;48.728;9.142;2023-07-16T10:06:58;19.80;99.90
46438;DHT22;32137;48.728;9.142;2023-07-16T10:09:35;19.70;99.90
46438;DHT22;32137;48.728;9.142;2023-07-16T10:12:11;19.90;99.90
46438;DHT22;32137;48.728;9.142;2023-07-16T10:14:42;20.00;99.90
46438;DHT22;32137;48.728;9.142;2023-07-16T10:17:15;20.00;99.90
46438;DHT22;32137;48.728;9.142;2023-07-16T10:22:34;20.30;99.90
46438;DHT22;32137;48.728;9.142;2023-07-16T10:25:01;20.40;99.90
46438;DHT22;32137;48.728;9.142;2023-07-16T10:27:32;20.40;1.00
46438;DHT22;32137;48.728;9.142;2023-07-16T10:29:59;20.50;22.20
46438;DHT22;32137;48.728;9.142;2023-07-16T10:32:28;20.50;24.40
46438;DHT22;32137;48.728;9.142;2023-07-16T10:34:54;20.60;2.00
46438;DHT22;32137;48.728;9.142;2023-07-16T10:37:20;20.70;1.00
46438;DHT22;32137;48.728;9.142;2023-07-16T10:39:50;20.70;11.80
46438;DHT22;32137;48.728;9.142;2023-07-16T10:42:16;20.70;7.60
46438;DHT22;32137;48.728;9.142;2023-07-16T10:44:43;20.80;1.00
46438;DHT22;32137;48.728;9.142;2023-07-16T10:47:10;20.90;1.00
46438;DHT22;32137;48.728;9.142;2023-07-16T10:49:42;21.10;22.80
46438;DHT22;32137;48.728;9.142;2023-07-16T10:52:09;21.20;1.00
46438;DHT22;32137;48.728;9.142;2023-07-16T10:54:35;21.30;1.00
46438;DHT22;32137;48.728;9.142;2023-07-16T10:57:00;21.20;23.90
46438;DHT22;32137;48.728;9.142;2023-07-16T10:59:26;21.30;11.40
46438;DHT22;32137;48.728;9.142;2023-07-16T11:01:52;21.30;1.00
46438;DHT22;32137;48.728;9.142;2023-07-16T11:04:17;21.30;1.00
46438;DHT22;32137;48.728;9.142;2023-07-16T11:06:43;21.30;1.00
46438;DHT22;32137;48.728;9.142;2023-07-16T11:09:09;21.30;1.00
46438;DHT22;32137;48.728;9.142;2023-07-16T11:11:34;21.40;1.00
46438;DHT22;32137;48.728;9.142;2023-07-16T11:14:02;21.40;1.00
46438;DHT22;32137;48.728;9.142;2023-07-16T11:16:35;21.50;1.00
46438;DHT22;32137;48.728;9.142;2023-07-16T11:19:05;21.70;45.40
46438;DHT22;32137;48.728;9.142;2023-07-16T11:21:33;21.90;1.00
46438;DHT22;32137;48.728;9.142;2023-07-16T11:24:12;22.00;99.90
46438;DHT22;32137;48.728;9.142;2023-07-16T11:26:40;22.00;1.00
46438;DHT22;32137;48.728;9.142;2023-07-16T11:29:15;22.30;99.90
46438;DHT22;32137;48.728;9.142;2023-07-16T11:31:40;22.80;1.00
46438;DHT22;32137;48.728;9.142;2023-07-16T11:34:14;23.40;99.90
46438;DHT22;32137;48.728;9.142;2023-07-16T11:36:40;23.50;99.90
46438;DHT22;32137;48.728;9.142;2023-07-16T11:39:06;23.80;99.90
46438;DHT22;32137;48.728;9.142;2023-07-16T11:41:32;24.00;99.90
46438;DHT22;32137;48.728;9.142;2023-07-16T11:44:00;24.10;99.90
46438;DHT22;32137;48.728;9.142;2023-07-16T11:46:31;24.60;73.60
46438;DHT22;32137;48.728;9.142;2023-07-16T11:48:58;26.50;1.00
46438;DHT22;32137;48.728;9.142;2023-07-16T11:51:24;27.60;99.90
46438;DHT22;32137;48.728;9.142;2023-07-16T11:53:50;28.40;99.90
46438;DHT22;32137;48.728;9.142;2023-07-16T11:56:15;28.00;99.90
46438;DHT22;32137;48.728;9.142;2023-07-16T11:58:41;28.50;99.90
46438;DHT22;32137;48.728;9.142;2023-07-16T12:01:06;31.30;99.90
46438;DHT22;32137;48.728;9.142;2023-07-16T12:03:32;33.50;99.90
46438;DHT22;32137;48.728;9.142;2023-07-16T12:05:57;34.30;13.30
46438;DHT22;32137;48.728;9.142;2023-07-16T12:08:23;32.10;73.20
46438;DHT22;32137;48.728;9.142;2023-07-16T12:10:49;30.20;99.90
46438;DHT22;32137;48.728;9.142;2023-07-16T12:13:14;30.00;99.90
46438;DHT22;32137;48.728;9.142;2023-07-16T12:15:40;30.50;99.90
46438;DHT22;32137;48.728;9.142;2023-07-16T12:18:06;31.40;99.90
46438;DHT22;32137;48.728;9.142;2023-07-16T12:20:31;31.80;73.30
46438;DHT22;32137;48.728;9.142;2023-07-16T12:22:57;32.10;9.50
46438;DHT22;32137;48.728;9.142;2023-07-16T12:25:22;31.20;70.40
46438;DHT22;32137;48.728;9.142;2023-07-16T12:27:48;31.60;27.90
46438;DHT22;32137;48.728;9.142;2023-07-16T12:30:14;32.90;15.20
46438;DHT22;32137;48.728;9.142;2023-07-16T12:32:39;33.80;1.00
46438;DHT22;32137;48.728;9.142;2023-07-16T12:35:05;34.30;1.00
46438;DHT22;32137;48.728;9.142;2023-07-16T12:37:30;33.70;1.00
46438;DHT22;32137;48.728;9.142;2023-07-16T12:39:56;32.30;1.00
46438;DHT22;32137;48.728;9.142;2023-07-16T12:42:21;31.10;20.70
46438;DHT22;32137;48.728;9.142;2023-07-16T12:44:47;29.90;75.40
46438;DHT22;32137;48.728;9.142;2023-07-16T12:47:15;28.80;99.90
46438;DHT22;32137;48.728;9.142;2023-07-16T12:49:40;27.90;99.90
46438;DHT22;32137;48.728;9.142;2023-07-16T12:52:06;27.20;99.90
46438;DHT22;32137;48.728;9.142;2023-07-16T12:54:32;26.70;99.90
46438;DHT22;32137;48.728;9.142;2023-07-16T12:56:58;26.50;99.90
46438;DHT22;32137;48.728;9.142;2023-07-16T12:59:23;26.30;99.90
46438;DHT22;32137;48.728;9.142;2023-07-16T13:01:50;26.20;99.90
46438;DHT22;32137;48.728;9.142;2023-07-16T13:04:16;26.30;99.90
46438;DHT22;32137;48.728;9.142;2023-07-16T13:06:41;26.80;99.90
46438;DHT22;32137;48.728;9.142;2023-07-16T13:09:07;27.30;99.90
46438;DHT22;32137;48.728;9.142;2023-07-16T13:11:33;28.30;99.90
46438;DHT22;32137;48.728;9.142;2023-07-16T13:13:59;29.70;29.20
46438;DHT22;32137;48.728;9.142;2023-07-16T13:16:24;31.70;1.00
46438;DHT22;32137;48.728;9.142;2023-07-16T13:18:50;31.40;1.00
46438;DHT22;32137;48.728;9.142;2023-07-16T13:21:15;33.40;1.00
46438;DHT22;32137;48.728;9.142;2023-07-16T13:23:41;35.50;1.00
46438;DHT22;32137;48.728;9.142;2023-07-16T13:26:07;36.50;1.00
46438;DHT22;32137;48.728;9.142;2023-07-16T13:28:32;36.00;1.00
46438;DHT22;32137;48.728;9.142;2023-07-16T13:30:58;35.40;1.00
46438;DHT22;32137;48.728;9.142;2023-07-16T13:33:24;33.80;1.00
46438;DHT22;32137;48.728;9.142;2023-07-16T13:35:50;33.00;1.00
46438;DHT22;32137;48.728;9.142;2023-07-16T13:38:15;33.80;1.00
46438;DHT22;32137;48.728;9.142;2023-07-16T13:40:41;33.90;1.00
46438;DHT22;32137;48.728;9.142;2023-07-16T13:43:06;33.50;1.00
46438;DHT22;32137;48.728;9.142;2023-07-16T13:45:33;32.80;1.00
46438;DHT22;32137;48.728;9.142;2023-07-16T13:47:59;32.30;1.00
46438;DHT22;32137;48.728;9.142;2023-07-16T13:50:24;32.90;1.00
46438;DHT22;32137;48.728;9.142;2023-07-16T13:52:50;34.20;1.00
46438;DHT22;32137;48.728;9.142;2023-07-16T13:55:15;34.50;1.00
46438;DHT22;32137;48.728;9.142;2023-07-16T13:57:42;34.20;1.00
46438;DHT22;32137;48.728;9.142;2023-07-16T14:00:08;33.80;1.00
46438;DHT22;32137;48.728;9.142;2023-07-16T14:02:37;33.30;1.00
46438;DHT22;32137;48.728;9.142;2023-07-16T14:05:03;33.30;1.00
46438;DHT22;32137;48.728;9.142;2023-07-16T14:07:30;33.10;1.00
46438;DHT22;32137;48.728;9.142;2023-07-16T14:09:55;32.60;1.00
46438;DHT22;32137;48.728;9.142;2023-07-16T14:12:21;31.80;1.00
46438;DHT22;32137;48.728;9.142;2023-07-16T14:14:47;31.30;1.00
46438;DHT22;32137;48.728;9.142;2023-07-16T14:17:12;31.30;1.00
46438;DHT22;32137;48.728;9.142;2023-07-16T14:19:38;31.40;1.00
46438;DHT22;32137;48.728;9.142;2023-07-16T14:22:03;31.30;1.00
46438;DHT22;32137;48.728;9.142;2023-07-16T14:24:33;30.80;1.00
46438;DHT22;32137;48.728;9.142;2023-07-16T14:26:59;30.60;6.70
46438;DHT22;32137;48.728;9.142;2023-07-16T14:29:27;30.10;22.60
46438;DHT22;32137;48.728;9.142;2023-07-16T14:31:55;29.60;16.30
46438;DHT22;32137;48.728;9.142;2023-07-16T14:34:20;29.30;67.80
46438;DHT22;32137;48.728;9.142;2023-07-16T14:36:46;28.90;80.50
46438;DHT22;32137;48.728;9.142;2023-07-16T14:39:11;28.60;72.70
46438;DHT22;32137;48.728;9.142;2023-07-16T14:41:38;28.40;93.30
46438;DHT22;32137;48.728;9.142;2023-07-16T14:44:05;28.10;99.90
46438;DHT22;32137;48.728;9.142;2023-07-16T14:46:30;27.90;99.90
46438;DHT22;32137;48.728;9.142;2023-07-16T14:48:56;27.70;99.90
46438;DHT22;32137;48.728;9.142;2023-07-16T14:51:23;27.50;99.90
46438;DHT22;32137;48.728;9.142;2023-07-16T14:53:49;27.30;99.90
46438;DHT22;32137;48.728;9.142;2023-07-16T14:56:15;27.20;99.90
46438;DHT22;32137;48.728;9.142;2023-07-16T14:58:40;27.00;99.90
46438;DHT22;32137;48.728;9.142;2023-07-16T15:01:06;27.00;99.90
46438;DHT22;32137;48.728;9.142;2023-07-16T15:03:34;27.00;99.90
46438;DHT22;32137;48.728;9.142;2023-07-16T15:06:01;27.10;99.90
46438;DHT22;32137;48.728;9.142;2023-07-16T15:08:26;27.20;99.90
46438;DHT22;32137;48.728;9.142;2023-07-16T15:10:53;27.10;99.90
46438;DHT22;32137;48.728;9.142;2023-07-16T15:13:19;27.10;99.90
46438;DHT22;32137;48.728;9.142;2023-07-16T15:15:48;26.90;90.10
46438;DHT22;32137;48.728;9.142;2023-07-16T15:18:14;26.80;88.90
46438;DHT22;32137;48.728;9.142;2023-07-16T15:20:40;26.60;95.40
46438;DHT22;32137;48.728;9.142;2023-07-16T15:23:06;26.50;97.90
46438;DHT22;32137;48.728;9.142;2023-07-16T15:25:31;26.30;99.90
46438;DHT22;32137;48.728;9.142;2023-07-16T15:27:57;26.30;99.90
46438;DHT22;32137;48.728;9.142;2023-07-16T15:30:24;26.30;99.90
46438;DHT22;32137;48.728;9.142;2023-07-16T15:32:51;26.30;99.90
46438;DHT22;32137;48.728;9.142;2023-07-16T15:35:16;26.60;99.90